createdAt,value
2023-04-22T00:08:14.783Z,98.5
2023-04-22T00:18:14.790Z,99.0
2023-04-22T00:23:14.790Z,99.0
2023-04-22T00:33:14.782Z,99.1
2023-04-22T00:38:14.815Z,98.5
2023-04-22T00:43:14.808Z,98.3
2023-04-22T00:48:14.875Z,98.8
2023-04-22T00:53:14.830Z,97.9
2023-04-22T00:58:14.795Z,99.1
2023-04-22T01:03:14.924Z,97.5
2023-04-22T01:08:14.820Z,98.7
2023-04-22T01:13:14.800Z,97.8
2023-04-22T01:18:14.837Z,97.5
2023-04-22T01:23:14.825Z,99.8
2023-04-22T01:28:14.837Z,97.7
2023-04-22T01:38:14.842Z,100.0
2023-04-22T01:43:14.812Z,99.3
2023-04-22T01:48:14.828Z,99.0
2023-04-22T01:53:14.846Z,100.0
2023-04-22T01:58:14.844Z,100.0
2023-04-22T02:03:14.971Z,100.0
2023-04-22T02:08:14.844Z,99.2
2023-04-22T02:13:14.822Z,100.0
2023-04-22T02:28:14.826Z,100.0
2023-04-22T02:48:14.955Z,100.0
2023-04-22T02:53:14.878Z,100.0
2023-04-22T02:58:14.865Z,100.0
2023-04-22T03:03:14.983Z,100.0
2023-04-22T03:13:14.845Z,100.0
2023-04-22T03:18:14.848Z,100.0
2023-04-22T03:33:14.881Z,100.0
2023-04-22T03:43:16.186Z,100.0
2023-04-22T03:53:14.889Z,100.0
2023-04-22T03:58:14.888Z,100.0
2023-04-22T04:03:15.110Z,100.0
2023-04-22T04:13:14.880Z,100.0
2023-04-22T04:18:14.871Z,100.0
2023-04-22T04:28:14.866Z,100.0
2023-04-22T04:33:14.856Z,100.0
2023-04-22T04:53:14.893Z,100.0
2023-04-22T04:58:14.883Z,100.0
2023-04-22T05:03:15.057Z,100.0
2023-04-22T05:13:14.887Z,100.0
2023-04-22T05:18:14.885Z,100.0
2023-04-22T05:23:14.909Z,99.4
2023-04-22T05:28:14.888Z,100.0
2023-04-22T05:33:14.921Z,100.0
2023-04-22T05:43:14.879Z,100.0
2023-04-22T05:48:14.895Z,100.0
2023-04-22T05:58:14.930Z,100.0
2023-04-22T06:03:15.059Z,100.0
2023-04-22T06:13:14.897Z,100.0
2023-04-22T06:18:14.911Z,100.0
2023-04-22T06:23:14.911Z,100.0
2023-04-22T06:28:14.916Z,98.6
2023-04-22T06:33:14.973Z,97.1
2023-04-22T06:43:14.927Z,96.0
2023-04-22T06:48:14.910Z,98.2
2023-04-22T06:53:14.913Z,100.0
2023-04-22T06:58:16.376Z,100.0
2023-04-22T07:03:14.959Z,100.0
2023-04-22T07:08:14.914Z,98.7
2023-04-22T07:13:14.924Z,96.8
2023-04-22T07:18:14.915Z,97.1
2023-04-22T07:23:14.904Z,96.3
2023-04-22T07:28:14.945Z,100.0
2023-04-22T07:33:14.936Z,96.1
2023-04-22T07:38:14.935Z,96.0
2023-04-22T07:43:14.912Z,95.5
2023-04-22T07:48:14.936Z,98.1
2023-04-22T07:53:14.953Z,96.1
2023-04-22T07:58:14.936Z,96.3
2023-04-22T08:03:15.146Z,96.0
2023-04-22T08:08:14.946Z,96.0
2023-04-22T08:13:16.476Z,95.6
2023-04-22T08:18:14.947Z,91.2
2023-04-22T08:23:14.938Z,90.9
2023-04-22T08:28:14.952Z,88.5
2023-04-22T08:33:14.959Z,87.7
2023-04-22T08:38:14.945Z,86.3
2023-04-22T08:43:14.965Z,85.1
2023-04-22T08:53:14.942Z,86.6
2023-04-22T08:58:14.969Z,87.1
2023-04-22T09:03:15.067Z,84.1
2023-04-22T09:08:14.963Z,82.3
2023-04-22T09:13:14.983Z,81.2
2023-04-22T09:18:14.956Z,78.7
2023-04-22T09:23:14.976Z,74.9
2023-04-22T09:28:14.977Z,74.8
2023-04-22T09:33:14.954Z,76.2
2023-04-22T09:38:14.972Z,75.9
2023-04-22T09:43:14.958Z,71.5
2023-04-22T09:48:14.976Z,69.1
2023-04-22T09:53:14.990Z,74.7
2023-04-22T09:58:14.980Z,69.9
2023-04-22T10:03:15.094Z,65.3
2023-04-22T10:08:15.038Z,64.2
2023-04-22T10:13:14.986Z,60.5
2023-04-22T10:18:14.982Z,57.0
2023-04-22T10:23:14.987Z,61.3
2023-04-22T10:28:14.980Z,52.5
2023-04-22T10:33:14.988Z,45.8
2023-04-22T10:38:15.079Z,44.1
2023-04-22T10:43:15.007Z,44.1
2023-04-22T10:48:14.978Z,47.1
2023-04-22T10:53:14.998Z,47.2
2023-04-22T10:58:14.985Z,43.8
2023-04-22T11:03:16.591Z,34.7
2023-04-22T11:08:14.989Z,34.7
2023-04-22T11:13:15.019Z,40.7
2023-04-22T11:18:15.002Z,46.6
2023-04-22T11:23:15.000Z,50.9
2023-04-22T11:28:15.034Z,55.2
2023-04-22T11:33:15.000Z,56.8
2023-04-22T11:38:15.018Z,54.0
2023-04-22T11:43:15.020Z,51.9
2023-04-22T11:48:14.999Z,50.3
2023-04-22T11:53:15.046Z,49.1
2023-04-22T11:58:15.040Z,48.5
2023-04-22T12:03:15.564Z,53.8
2023-04-22T12:08:15.031Z,55.3
2023-04-22T12:13:15.024Z,56.6
2023-04-22T12:18:15.039Z,60.2
2023-04-22T12:23:15.043Z,62.6
2023-04-22T12:28:15.032Z,62.3
2023-04-22T12:33:15.029Z,61.2
2023-04-22T12:38:15.032Z,60.8
2023-04-22T12:43:15.040Z,65.6
2023-04-22T12:48:15.048Z,64.4
2023-04-22T13:03:15.247Z,63.8
2023-04-22T13:08:15.062Z,64.5
2023-04-22T13:13:18.814Z,63.9
2023-04-22T13:18:15.141Z,66.2
2023-04-22T13:23:15.131Z,68.7
2023-04-22T13:28:15.031Z,70.8
2023-04-22T13:33:15.048Z,75.8
2023-04-22T13:38:15.081Z,79.4
2023-04-22T13:43:15.053Z,82.7
2023-04-22T13:48:15.064Z,85.0
2023-04-22T13:53:15.067Z,90.9
2023-04-22T13:58:15.055Z,100.0
2023-04-22T14:03:15.292Z,100.0
2023-04-22T14:08:15.076Z,100.0
2023-04-22T14:13:15.072Z,100.0
2023-04-22T14:18:15.081Z,100.0
2023-04-22T14:23:15.087Z,100.0
2023-04-22T14:28:15.095Z,100.0
2023-04-22T14:33:15.077Z,100.0
2023-04-22T14:38:15.067Z,100.0
2023-04-22T14:43:15.099Z,100.0
2023-04-22T14:53:15.061Z,100.0
2023-04-22T14:58:15.100Z,100.0
2023-04-22T15:03:15.145Z,100.0
2023-04-22T15:08:15.100Z,100.0
2023-04-22T15:13:15.079Z,100.0
2023-04-22T15:18:15.102Z,100.0
2023-04-22T15:23:15.074Z,100.0
2023-04-22T15:28:15.103Z,100.0
2023-04-22T15:33:15.113Z,100.0
2023-04-22T15:38:15.084Z,100.0
2023-04-22T15:48:15.081Z,100.0
2023-04-22T15:58:15.102Z,100.0
2023-04-22T16:03:15.184Z,100.0
2023-04-22T16:08:15.131Z,100.0
2023-04-22T16:13:15.104Z,100.0
2023-04-22T16:18:15.114Z,100.0
2023-04-22T16:23:15.123Z,100.0
2023-04-22T16:33:15.122Z,100.0
2023-04-22T16:53:15.192Z,100.0
2023-04-22T16:58:15.144Z,100.0
2023-04-22T17:08:15.139Z,100.0
2023-04-22T17:13:15.133Z,100.0
2023-04-22T17:18:16.413Z,100.0
2023-04-22T17:23:15.160Z,100.0
2023-04-22T17:28:15.130Z,100.0
2023-04-22T17:33:15.199Z,100.0
2023-04-22T17:38:15.132Z,100.0
2023-04-22T17:43:15.131Z,100.0
2023-04-22T17:48:15.162Z,100.0
2023-04-22T17:53:15.143Z,100.0
2023-04-22T17:58:15.173Z,100.0
2023-04-22T18:03:15.265Z,100.0
2023-04-22T18:08:15.192Z,100.0
2023-04-22T18:13:15.153Z,100.0
2023-04-22T18:23:15.236Z,100.0
2023-04-22T18:28:15.149Z,100.0
2023-04-22T18:38:15.171Z,100.0
2023-04-22T18:48:15.227Z,100.0
2023-04-22T18:58:15.181Z,100.0
2023-04-22T19:03:15.371Z,100.0
2023-04-22T19:08:15.188Z,100.0
2023-04-22T19:13:28.556Z,100.0
2023-04-22T19:18:15.160Z,100.0
2023-04-22T19:23:15.176Z,100.0
2023-04-22T19:28:15.169Z,100.0
2023-04-22T19:43:15.236Z,100.0
2023-04-22T19:48:15.275Z,100.0
2023-04-22T19:53:15.171Z,100.0
2023-04-22T19:58:15.222Z,100.0
2023-04-22T20:08:15.184Z,100.0
2023-04-22T20:13:15.193Z,100.0
2023-04-22T20:18:15.213Z,100.0
2023-04-22T20:23:15.199Z,100.0
2023-04-22T20:28:15.216Z,100.0
2023-04-22T20:33:17.347Z,100.0
2023-04-22T20:38:15.250Z,100.0
2023-04-22T20:43:15.190Z,100.0
2023-04-22T20:48:15.200Z,100.0
2023-04-22T20:58:15.210Z,100.0
2023-04-22T21:03:15.393Z,100.0
2023-04-22T21:08:15.229Z,100.0
2023-04-22T21:13:15.209Z,100.0
2023-04-22T21:18:15.224Z,100.0
2023-04-22T21:23:15.221Z,100.0
2023-04-22T21:33:15.237Z,100.0
2023-04-22T22:08:15.237Z,100.0
2023-04-22T22:13:15.242Z,100.0
2023-04-22T22:23:15.233Z,100.0
2023-04-22T22:48:15.249Z,100.0
2023-04-22T23:08:15.873Z,100.0
2023-04-22T23:18:15.245Z,100.0
2023-04-22T23:28:15.279Z,100.0
2023-04-22T23:48:15.274Z,100.0
2023-04-22T23:58:15.262Z,100.0
